createdAt,value
2018-12-02T00:00:04.725Z,29.7
2018-12-02T00:00:54.036Z,29.8
2018-12-02T00:01:45.039Z,29.9
2018-12-02T00:02:35.541Z,29.9
2018-12-02T00:03:24.583Z,29.9
2018-12-02T00:04:14.853Z,30
2018-12-02T00:05:05.859Z,30.1
2018-12-02T00:05:56.305Z,30.1
2018-12-02T00:06:45.465Z,30.2
2018-12-02T00:24:57.244Z,29.4
2018-12-02T00:25:47.867Z,29.3
2018-12-02T00:26:37.166Z,29.1
2018-12-02T00:27:27.115Z,29
2018-12-02T00:28:16.466Z,28.9
2018-12-02T00:29:07.830Z,28.8
2018-12-02T00:29:57.424Z,28.7
2018-12-02T00:30:47.802Z,28.6
2018-12-02T00:31:37.211Z,28.6
2018-12-02T00:32:25.866Z,28.4
2018-12-02T00:33:15.998Z,28.2
2018-12-02T00:34:07.659Z,28.4
2018-12-02T00:34:57.122Z,28.7
2018-12-02T00:35:48.353Z,28.6
2018-12-02T00:36:36.716Z,28.4
2018-12-02T00:37:27.792Z,28.4
2018-12-02T00:38:17.523Z,28.3
2018-12-02T00:39:07.464Z,28.3
2018-12-02T00:39:57.100Z,28.4
2018-12-02T00:40:48.339Z,28.6
2018-12-02T00:41:38.187Z,28.8
2018-12-02T00:42:28.199Z,28.9
2018-12-02T00:43:18.533Z,29
2018-12-02T00:44:09.616Z,29.1
2018-12-02T00:44:58.397Z,29.2
2018-12-02T00:45:47.718Z,29.3
2018-12-02T00:46:37.194Z,29.3
2018-12-02T00:47:27.601Z,29.4
2018-12-02T00:48:18.279Z,29.5
2018-12-02T00:49:09.183Z,29.5
2018-12-02T00:49:58.431Z,29.6
2018-12-02T00:50:48.494Z,29.6
2018-12-02T00:51:38.609Z,29.7
2018-12-02T00:52:28.381Z,29.8
2018-12-02T00:53:18.113Z,29.8
2018-12-02T00:54:08.477Z,29.9
2018-12-02T00:54:58.597Z,29.9
2018-12-02T00:55:49.371Z,29.9
2018-12-02T00:56:38.090Z,29.9
2018-12-02T00:57:30.253Z,30
2018-12-02T00:58:19.033Z,30.1
2018-12-02T00:59:08.246Z,30.1
2018-12-02T00:59:59.432Z,30.1
2018-12-02T01:00:48.671Z,30.1
2018-12-02T01:01:39.733Z,30.1
2018-12-02T01:02:29.599Z,30.2
2018-12-02T01:03:19.333Z,30.2
2018-12-02T01:04:09.483Z,30.2
2018-12-02T01:04:58.672Z,30.3
2018-12-02T01:05:49.333Z,30.3
2018-12-02T01:06:39.275Z,30.3
2018-12-02T01:07:29.855Z,30.1
2018-12-02T01:08:20.246Z,30
2018-12-02T01:09:08.767Z,29.8
2018-12-02T01:09:58.438Z,29.6
2018-12-02T01:10:50.495Z,29.4
2018-12-02T01:11:40.275Z,29.2
2018-12-02T01:12:29.464Z,29.3
2018-12-02T01:13:20.337Z,29.6
2018-12-02T01:14:10.432Z,29.5
2018-12-02T01:15:00.523Z,29.2
2018-12-02T01:15:51.019Z,28.8
2018-12-02T01:16:39.764Z,28.4
2018-12-02T01:17:30.616Z,28.3
2018-12-02T01:18:20.412Z,28.3
2018-12-02T01:19:10.451Z,28.6
2018-12-02T01:20:00.323Z,28.7
2018-12-02T01:20:50.193Z,28.9
2018-12-02T01:21:40.859Z,29
2018-12-02T01:22:30.520Z,29.1
2018-12-02T01:23:21.643Z,29.3
2018-12-02T01:24:10.873Z,29.3
2018-12-02T01:25:01.156Z,29.4
2018-12-02T01:25:52.015Z,29.5
2018-12-02T01:26:40.808Z,29.6
2018-12-02T01:27:31.581Z,29.7
2018-12-02T01:28:20.841Z,29.8
2018-12-02T01:29:10.878Z,29.8
2018-12-02T01:30:01.928Z,29.9
2018-12-02T01:30:51.375Z,29.9
2018-12-02T01:31:41.877Z,30
2018-12-02T01:32:31.345Z,30.1
2018-12-02T01:33:20.631Z,30.1
2018-12-02T01:34:11.718Z,30.1
2018-12-02T01:35:00.378Z,30.2
2018-12-02T01:35:52.175Z,30.2
2018-12-02T01:36:41.915Z,30.3
2018-12-02T01:37:31.487Z,30.3
2018-12-02T01:38:20.952Z,30.3
2018-12-02T01:39:11.907Z,30.4
2018-12-02T01:40:01.292Z,30.4
2018-12-02T01:40:51.924Z,30.4
2018-12-02T01:41:41.662Z,30.4
2018-12-02T01:42:33.312Z,30.4
2018-12-02T01:43:21.305Z,30.2
2018-12-02T01:44:12.442Z,30.1
2018-12-02T01:45:02.002Z,30
2018-12-02T01:45:51.715Z,29.8
2018-12-02T01:46:42.050Z,29.7
2018-12-02T01:47:31.568Z,29.6
2018-12-02T01:48:22.401Z,29.4
2018-12-02T01:49:11.759Z,29.2
2018-12-02T01:50:02.014Z,29
2018-12-02T01:50:52.127Z,28.9
2018-12-02T01:51:42.119Z,28.8
2018-12-02T01:52:33.009Z,28.7
2018-12-02T01:53:22.439Z,28.6
2018-12-02T01:54:12.524Z,28.5
2018-12-02T01:55:02.459Z,28.4
2018-12-02T01:55:53.269Z,28.1
2018-12-02T01:56:41.594Z,28.4
2018-12-02T01:57:33.684Z,28.7
2018-12-02T01:58:22.872Z,28.6
2018-12-02T01:59:12.708Z,28.4
2018-12-02T02:00:02.234Z,28.3
2018-12-02T02:00:52.004Z,28.2
2018-12-02T02:01:43.079Z,28.2
2018-12-02T02:02:33.432Z,28.4
2018-12-02T02:03:23.769Z,28.5
2018-12-02T02:04:13.312Z,28.7
2018-12-02T02:05:04.449Z,28.8
2018-12-02T02:05:53.081Z,28.9
2018-12-02T02:06:43.171Z,29
2018-12-02T02:07:34.258Z,29.1
2018-12-02T02:08:23.628Z,29.2
2018-12-02T02:09:12.555Z,29.3
2018-12-02T02:10:04.231Z,29.4
2018-12-02T02:10:53.698Z,29.4
2018-12-02T02:11:43.513Z,29.5
2018-12-02T02:12:34.178Z,29.6
2018-12-02T02:13:24.460Z,29.6
2018-12-02T02:14:14.970Z,29.7
2018-12-02T02:15:03.228Z,29.8
2018-12-02T02:15:53.847Z,29.8
2018-12-02T02:16:44.973Z,29.8
2018-12-02T02:17:34.427Z,29.9
2018-12-02T02:18:23.014Z,29.9
2018-12-02T02:19:13.465Z,29.9
2018-12-02T02:20:04.383Z,30
2018-12-02T02:20:54.662Z,30
2018-12-02T02:21:44.210Z,30.1
2018-12-02T02:22:33.925Z,30.1
2018-12-02T02:23:25.382Z,30.1
2018-12-02T02:24:15.172Z,30.2
2018-12-02T02:25:04.449Z,30.2
2018-12-02T02:25:54.537Z,30.2
2018-12-02T02:26:45.592Z,30.3
2018-12-02T02:27:34.837Z,30.3
2018-12-02T02:28:25.609Z,30.3
2018-12-02T02:29:13.644Z,30.3
2018-12-02T02:30:05.192Z,30.4
2018-12-02T02:30:55.210Z,30.4
2018-12-02T02:31:45.161Z,30.4
2018-12-02T02:32:35.529Z,30.4
2018-12-02T02:33:25.136Z,30.4
2018-12-02T02:34:15.086Z,30.4
2018-12-02T02:35:04.884Z,30.4
2018-12-02T02:35:55.214Z,30.3
2018-12-02T02:36:45.550Z,30.2
2018-12-02T02:37:36.497Z,30
2018-12-02T02:38:26.491Z,29.9
2018-12-02T02:39:16.284Z,29.8
2018-12-02T02:40:05.843Z,29.6
2018-12-02T02:40:56.613Z,29.4
2018-12-02T02:41:45.659Z,29.3
2018-12-02T02:42:35.987Z,29.1
2018-12-02T02:43:27.343Z,28.9
2018-12-02T02:44:16.290Z,28.9
2018-12-02T02:45:04.482Z,28.8
2018-12-02T02:45:56.535Z,28.7
2018-12-02T02:46:46.248Z,28.6
2018-12-02T02:47:36.240Z,28.5
2018-12-02T02:48:25.938Z,28.2
2018-12-02T02:49:16.406Z,28.3
2018-12-02T02:50:05.600Z,28.6
2018-12-02T02:50:56.248Z,28.6
2018-12-02T02:51:45.998Z,28.4
2018-12-02T02:52:36.889Z,28.3
2018-12-02T02:53:26.343Z,28.2
2018-12-02T02:54:17.346Z,28.2
2018-12-02T02:55:07.080Z,28.3
2018-12-02T02:55:56.621Z,28.4
2018-12-02T02:56:46.115Z,28.6
2018-12-02T02:57:37.278Z,28.8
2018-12-02T02:58:27.102Z,28.8
2018-12-02T02:59:17.604Z,29
2018-12-02T03:00:08.015Z,29.1
2018-12-02T03:00:55.642Z,29.1
2018-12-02T03:01:47.830Z,29.3
2018-12-02T03:02:37.310Z,29.3
2018-12-02T03:03:27.862Z,29.4
2018-12-02T03:04:18.233Z,29.4
2018-12-02T03:05:08.032Z,29.5
2018-12-02T03:05:58.109Z,29.6
2018-12-02T03:06:48.142Z,29.6
2018-12-02T03:07:37.687Z,29.7
2018-12-02T03:08:28.597Z,29.7
2018-12-02T03:09:19.886Z,29.8
2018-12-02T03:10:08.646Z,29.8
2018-12-02T03:10:58.934Z,29.9
2018-12-02T03:11:48.466Z,29.9
2018-12-02T03:12:38.287Z,29.9
2018-12-02T03:13:27.787Z,29.9
2018-12-02T03:14:19.534Z,29.9
2018-12-02T03:15:07.911Z,30
2018-12-02T03:15:57.232Z,30.1
2018-12-02T03:16:48.582Z,30.1
2018-12-02T03:17:38.648Z,30.1
2018-12-02T03:18:27.633Z,30.1
2018-12-02T03:19:19.481Z,30.1
2018-12-02T03:20:07.691Z,30.2
2018-12-02T03:20:58.816Z,30.2
2018-12-02T03:21:48.590Z,30.2
2018-12-02T03:22:38.616Z,30.2
2018-12-02T03:23:29.001Z,30.3
2018-12-02T03:24:19.351Z,30.3
2018-12-02T03:25:09.685Z,30.3
2018-12-02T03:25:59.255Z,30.3
2018-12-02T03:26:49.483Z,30.3
2018-12-02T03:27:39.058Z,30.3
2018-12-02T03:28:28.829Z,30.4
2018-12-02T03:29:20.465Z,30.4
2018-12-02T03:30:09.421Z,30.4
2018-12-02T03:30:58.623Z,30.4
2018-12-02T03:31:50.998Z,30.4
2018-12-02T03:32:39.762Z,30.2
2018-12-02T03:33:30.206Z,30
2018-12-02T03:34:19.620Z,29.8
2018-12-02T03:35:10.085Z,29.6
2018-12-02T03:35:59.275Z,29.3
2018-12-02T03:36:49.669Z,29.2
2018-12-02T03:37:40.522Z,29.2
2018-12-02T03:38:30.079Z,29.5
2018-12-02T03:39:19.842Z,29.5
2018-12-02T03:40:10.705Z,29.1
2018-12-02T03:41:00.164Z,28.8
2018-12-02T03:41:50.816Z,28.4
2018-12-02T03:42:38.687Z,28.2
2018-12-02T03:43:29.634Z,28.3
2018-12-02T03:44:19.157Z,28.5
2018-12-02T03:45:11.990Z,28.6
2018-12-02T03:45:59.449Z,28.8
2018-12-02T03:46:51.249Z,28.9
2018-12-02T03:47:40.129Z,29.1
2018-12-02T03:48:30.980Z,29.2
2018-12-02T03:49:20.258Z,29.3
2018-12-02T03:50:17.079Z,29.4
2018-12-02T03:51:00.791Z,29.4
2018-12-02T03:51:51.127Z,29.6
2018-12-02T03:52:41.296Z,29.6
2018-12-02T03:53:30.808Z,29.6
2018-12-02T03:54:21.901Z,29.7
2018-12-02T03:55:10.837Z,29.8
2018-12-02T03:56:01.545Z,29.8
2018-12-02T03:56:51.587Z,29.9
2018-12-02T03:57:41.883Z,29.9
2018-12-02T03:58:31.306Z,30
2018-12-02T03:59:21.749Z,30
2018-12-02T04:00:11.798Z,30.1
2018-12-02T04:01:02.709Z,30.1
2018-12-02T04:01:51.263Z,30.1
2018-12-02T04:02:41.063Z,30.2
2018-12-02T04:03:33.051Z,30.3
2018-12-02T04:04:21.202Z,30.3
2018-12-02T04:05:11.296Z,30.3
2018-12-02T04:06:02.403Z,30.3
2018-12-02T04:06:53.338Z,30.4
2018-12-02T04:07:41.769Z,30.4
2018-12-02T04:08:32.371Z,30.3
2018-12-02T04:09:22.401Z,30.2
2018-12-02T04:10:12.449Z,30.1
2018-12-02T04:11:03.349Z,30
2018-12-02T04:11:52.534Z,29.9
2018-12-02T04:12:42.896Z,29.8
2018-12-02T04:13:32.053Z,29.6
2018-12-02T04:14:22.723Z,29.4
2018-12-02T04:15:11.155Z,29.2
2018-12-02T04:16:02.641Z,29
2018-12-02T04:16:53.996Z,28.9
2018-12-02T04:17:42.874Z,28.8
2018-12-02T04:18:32.421Z,28.7
2018-12-02T04:19:22.283Z,28.6
2018-12-02T04:20:13.761Z,28.6
2018-12-02T04:21:04.032Z,28.4
2018-12-02T04:21:54.971Z,28.2
2018-12-02T04:22:43.070Z,28.4
2018-12-02T04:23:33.163Z,28.6
2018-12-02T04:24:22.060Z,28.4
2018-12-02T04:25:28.997Z,28.3
2018-12-02T04:26:03.261Z,28.1
2018-12-02T04:26:52.241Z,28.1
2018-12-02T04:27:43.803Z,28.2
2018-12-02T04:28:32.961Z,28.3
2018-12-02T04:29:23.535Z,28.5
2018-12-02T04:30:13.022Z,28.6
2018-12-02T04:31:04.397Z,28.8
2018-12-02T04:31:54.159Z,28.9
2018-12-02T04:32:43.352Z,29
2018-12-02T04:33:33.747Z,29.1
2018-12-02T04:34:24.820Z,29.2
2018-12-02T04:35:13.654Z,29.3
2018-12-02T04:36:03.533Z,29.4
2018-12-02T04:36:54.343Z,29.4
2018-12-02T04:54:10.863Z,30.2
2018-12-02T04:55:00.794Z,30.3
2018-12-02T04:55:50.858Z,30.3
2018-12-02T04:56:40.864Z,30.3
2018-12-02T04:57:32.281Z,30.3
2018-12-02T04:58:20.971Z,30.3
2018-12-02T04:59:11.930Z,30.4
2018-12-02T05:00:01.410Z,30.4
2018-12-02T05:00:51.639Z,30.4
2018-12-02T05:01:41.769Z,30.4
2018-12-02T05:02:31.523Z,30.3
2018-12-02T05:03:22.641Z,30.1
2018-12-02T05:04:11.978Z,30
2018-12-02T05:05:02.821Z,29.9
2018-12-02T05:05:52.035Z,29.8
2018-12-02T05:06:42.095Z,29.6
2018-12-02T05:07:32.387Z,29.5
2018-12-02T05:09:11.943Z,29
2018-12-02T05:10:01.522Z,28.9
2018-12-02T05:10:52.089Z,28.8
2018-12-02T05:11:42.175Z,28.6
2018-12-02T05:12:31.040Z,28.5
2018-12-02T05:13:22.793Z,28.4
2018-12-02T05:14:12.640Z,28.3
2018-12-02T05:15:01.548Z,28.1
2018-12-02T05:15:53.013Z,28.3
2018-12-02T05:16:42.285Z,28.6
2018-12-02T05:17:32.562Z,28.4
2018-12-02T05:18:23.397Z,28.3
2018-12-02T05:19:13.481Z,28.2
2018-12-02T05:20:03.248Z,28.1
2018-12-02T05:20:52.370Z,28.2
2018-12-02T05:21:42.624Z,28.3
2018-12-02T05:22:31.832Z,28.4
2018-12-02T05:23:23.739Z,28.6
2018-12-02T05:24:13.502Z,28.7
2018-12-02T05:25:03.388Z,28.8
2018-12-02T05:25:53.852Z,28.9
2018-12-02T05:26:43.297Z,29
2018-12-02T05:27:33.232Z,29.1
2018-12-02T05:28:22.547Z,29.1
2018-12-02T05:29:12.404Z,29.3
2018-12-02T05:30:04.232Z,29.3
2018-12-02T05:30:53.210Z,29.4
2018-12-02T05:31:43.279Z,29.4
2018-12-02T05:32:34.201Z,29.4
2018-12-02T05:33:24.146Z,29.5
2018-12-02T05:34:13.209Z,29.6
2018-12-02T05:35:04.263Z,29.6
2018-12-02T05:35:53.061Z,29.7
2018-12-02T05:36:44.889Z,29.7
2018-12-02T05:37:34.156Z,29.8
2018-12-02T05:38:24.223Z,29.8
2018-12-02T05:39:14.095Z,29.8
2018-12-02T05:40:03.643Z,29.8
2018-12-02T05:40:54.250Z,29.8
2018-12-02T05:41:44.990Z,29.9
2018-12-02T05:42:33.925Z,29.9
2018-12-02T05:43:23.468Z,29.9
2018-12-02T05:44:13.748Z,29.9
2018-12-02T05:45:05.243Z,29.9
2018-12-02T05:45:53.695Z,30
2018-12-02T05:46:44.018Z,30
2018-12-02T05:47:34.883Z,30
2018-12-02T05:48:24.726Z,30
2018-12-02T05:49:14.750Z,30.1
2018-12-02T05:50:04.532Z,30.1
2018-12-02T05:50:54.877Z,30.1
2018-12-02T05:51:45.002Z,30.1
2018-12-02T05:52:34.645Z,30.1
2018-12-02T05:53:25.290Z,30.1
2018-12-02T05:54:15.262Z,30.1
2018-12-02T05:55:05.337Z,30.1
2018-12-02T05:55:55.117Z,30.1
2018-12-02T05:56:47.082Z,30
2018-12-02T05:57:34.455Z,29.8
2018-12-02T05:58:25.289Z,29.6
2018-12-02T05:59:15.065Z,29.4
2018-12-02T06:00:04.669Z,29.2
2018-12-02T06:00:55.767Z,29
2018-12-02T06:01:45.832Z,28.9
2018-12-02T06:02:41.410Z,29.1
2018-12-02T06:03:24.514Z,29.3
2018-12-02T06:04:15.983Z,29.3
2018-12-02T06:05:05.485Z,28.9
2018-12-02T06:05:57.527Z,28.5
2018-12-02T06:06:44.924Z,28.1
2018-12-02T06:07:36.456Z,28
2018-12-02T06:08:25.446Z,28.1
2018-12-02T06:09:17.179Z,28.3
2018-12-02T06:10:05.866Z,28.5
2018-12-02T06:10:56.187Z,28.6
2018-12-02T06:11:52.396Z,28.8
2018-12-02T06:12:36.336Z,28.9
2018-12-02T06:13:26.611Z,29
2018-12-02T06:14:16.366Z,29.1
2018-12-02T06:15:06.451Z,29.2
2018-12-02T06:15:57.001Z,29.3
2018-12-02T06:16:47.443Z,29.3
2018-12-02T06:17:37.738Z,29.4
2018-12-02T06:18:27.781Z,29.5
2018-12-02T06:19:17.288Z,29.6
2018-12-02T06:20:12.650Z,29.6
2018-12-02T06:20:59.044Z,29.7
2018-12-02T06:21:47.583Z,29.7
2018-12-02T06:22:37.535Z,29.8
2018-12-02T06:23:27.565Z,29.8
2018-12-02T06:24:17.598Z,29.8
2018-12-02T06:25:06.888Z,29.9
2018-12-02T06:25:58.018Z,29.9
2018-12-02T06:26:47.815Z,29.9
2018-12-02T06:27:38.445Z,30
2018-12-02T06:28:28.198Z,30
2018-12-02T06:29:17.138Z,30.1
2018-12-02T06:30:07.718Z,30.1
2018-12-02T06:30:58.090Z,30.1
2018-12-02T06:31:47.365Z,30.1
2018-12-02T06:32:37.928Z,30.2
2018-12-02T06:33:27.978Z,30.3
2018-12-02T06:34:18.016Z,30.3
2018-12-02T06:35:08.081Z,30.3
2018-12-02T06:35:57.578Z,30.3
2018-12-02T06:36:48.690Z,30.3
2018-12-02T06:37:37.372Z,30.3
2018-12-02T06:38:28.835Z,30.3
2018-12-02T06:39:18.355Z,30.3
2018-12-02T06:40:09.074Z,30.3
2018-12-02T06:40:57.872Z,30.2
2018-12-02T06:41:49.000Z,30.1
2018-12-02T06:42:37.437Z,29.9
2018-12-02T06:43:29.786Z,29.8
2018-12-02T06:44:18.694Z,29.7
2018-12-02T06:45:07.737Z,29.5
2018-12-02T06:45:58.789Z,29.3
2018-12-02T06:46:49.074Z,29
2018-12-02T06:47:38.927Z,28.8
2018-12-02T06:48:29.483Z,28.7
2018-12-02T06:49:18.759Z,28.6
2018-12-02T06:50:10.198Z,28.5
2018-12-02T06:51:00.064Z,28.4
2018-12-02T06:51:49.974Z,28.3
2018-12-02T06:52:38.754Z,28
2018-12-02T06:53:28.799Z,28.3
2018-12-02T06:54:18.755Z,28.5
2018-12-02T06:55:09.697Z,28.4
2018-12-02T06:55:59.495Z,28.2
2018-12-02T06:56:48.798Z,28.1
2018-12-02T06:57:39.136Z,28.1
2018-12-02T06:58:30.308Z,28.1
2018-12-02T06:59:19.168Z,28.3
2018-12-02T07:00:09.788Z,28.4
2018-12-02T07:01:00.186Z,28.6
2018-12-02T07:01:50.236Z,28.7
2018-12-02T07:02:39.527Z,28.8
2018-12-02T07:03:29.991Z,28.9
2018-12-02T07:04:20.324Z,29
2018-12-02T07:05:10.951Z,29.1
2018-12-02T07:05:59.975Z,29.1
2018-12-02T07:06:50.591Z,29.2
2018-12-02T07:07:40.280Z,29.3
2018-12-02T07:08:30.372Z,29.4
2018-12-02T07:09:22.090Z,29.4
2018-12-02T07:10:09.910Z,29.5
2018-12-02T07:11:01.068Z,29.5
2018-12-02T07:11:50.299Z,29.6
2018-12-02T07:12:40.577Z,29.6
2018-12-02T07:13:31.515Z,29.7
2018-12-02T07:14:21.335Z,29.8
2018-12-02T07:15:10.822Z,29.8
2018-12-02T07:16:00.619Z,29.8
2018-12-02T07:16:50.965Z,29.9
2018-12-02T07:17:40.940Z,29.9
2018-12-02T07:18:31.102Z,29.9
2018-12-02T07:19:19.960Z,30
2018-12-02T07:20:11.402Z,30.1
2018-12-02T07:21:00.893Z,30.1
2018-12-02T07:21:51.294Z,30.1
2018-12-02T07:22:41.604Z,30.1
2018-12-02T07:23:30.813Z,30.1
2018-12-02T07:24:21.761Z,30.2
2018-12-02T07:25:10.990Z,30.2
2018-12-02T07:26:01.787Z,30.2
2018-12-02T07:26:52.184Z,30.3
2018-12-02T07:27:41.157Z,30.3
2018-12-02T07:28:31.064Z,30.3
2018-12-02T07:29:21.514Z,30.3
2018-12-02T07:30:10.586Z,30.3
2018-12-02T07:31:02.151Z,30.3
2018-12-02T07:31:52.158Z,30.3
2018-12-02T07:32:43.824Z,30.3
2018-12-02T07:33:32.023Z,30.1
2018-12-02T07:34:21.534Z,30
2018-12-02T07:35:12.150Z,29.9
2018-12-02T07:36:02.239Z,29.8
2018-12-02T07:36:51.776Z,29.6
2018-12-02T07:37:42.599Z,29.5
2018-12-02T07:38:32.143Z,29.2
2018-12-02T07:39:22.186Z,28.9
2018-12-02T07:40:12.496Z,28.8
2018-12-02T07:41:02.298Z,28.7
2018-12-02T07:41:52.954Z,28.6
2018-12-02T07:42:42.682Z,28.4
2018-12-02T07:43:32.289Z,28.4
2018-12-02T07:44:23.308Z,28.1
2018-12-02T07:45:13.665Z,28.3
2018-12-02T07:46:03.679Z,28.5
2018-12-02T07:46:53.196Z,28.5
2018-12-02T07:47:42.468Z,28.3
2018-12-02T07:48:32.546Z,28.3
2018-12-02T07:49:22.975Z,28.1
2018-12-02T07:50:12.985Z,28.1
2018-12-02T07:51:03.225Z,28.3
2018-12-02T07:51:53.275Z,28.4
2018-12-02T07:52:42.597Z,28.6
2018-12-02T07:53:33.398Z,28.7
2018-12-02T07:54:23.538Z,28.8
2018-12-02T07:55:13.822Z,28.9
2018-12-02T07:56:04.080Z,29
2018-12-02T07:56:53.688Z,29.1
2018-12-02T07:57:43.577Z,29.2
2018-12-02T07:58:34.623Z,29.3
2018-12-02T07:59:24.606Z,29.3
2018-12-02T08:00:14.470Z,29.4
2018-12-02T08:01:04.745Z,29.4
2018-12-02T08:01:53.990Z,29.5
2018-12-02T08:02:44.355Z,29.6
2018-12-02T08:03:34.077Z,29.6
2018-12-02T08:04:23.630Z,29.7
2018-12-02T08:05:14.469Z,29.7
2018-12-02T08:06:04.054Z,29.8
2018-12-02T08:06:53.766Z,29.8
2018-12-02T08:07:45.199Z,29.8
2018-12-02T08:08:34.167Z,29.9
2018-12-02T08:09:24.756Z,29.9
2018-12-02T08:10:14.257Z,29.9
2018-12-02T08:11:05.774Z,29.9
2018-12-02T08:11:54.380Z,29.9
2018-12-02T08:12:45.000Z,29.9
2018-12-02T08:13:34.762Z,29.9
2018-12-02T08:14:24.880Z,29.9
2018-12-02T08:15:14.386Z,30
2018-12-02T08:16:05.461Z,30.1
2018-12-02T08:16:55.881Z,30.1
2018-12-02T08:17:44.785Z,30.1
2018-12-02T08:18:35.663Z,30.2
2018-12-02T08:19:24.868Z,30.1
2018-12-02T08:20:15.768Z,29.9
2018-12-02T08:21:05.928Z,29.8
2018-12-02T08:21:54.830Z,29.6
2018-12-02T08:22:44.646Z,29.4
2018-12-02T08:23:35.253Z,29.2
2018-12-02T08:24:25.568Z,29.1
2018-12-02T08:25:16.129Z,29.1
2018-12-02T08:26:05.710Z,29.4
2018-12-02T08:26:55.629Z,29.3
2018-12-02T08:27:46.350Z,29
2018-12-02T08:28:36.117Z,28.7
2018-12-02T08:29:26.185Z,28.3
2018-12-02T08:30:16.760Z,28.1
2018-12-02T08:31:05.992Z,28.2
2018-12-02T08:31:55.887Z,28.4
2018-12-02T08:32:45.970Z,28.6
2018-12-02T08:33:34.946Z,28.8
2018-12-02T08:34:25.777Z,28.9
2018-12-02T08:35:14.719Z,29
2018-12-02T08:36:05.929Z,29.1
2018-12-02T08:36:55.109Z,29.3
2018-12-02T08:37:46.061Z,29.3
2018-12-02T08:38:36.089Z,29.4
2018-12-02T08:39:26.179Z,29.5
2018-12-02T08:40:16.963Z,29.6
2018-12-02T08:41:06.964Z,29.6
2018-12-02T08:41:57.535Z,29.8
2018-12-02T08:42:46.809Z,29.8
2018-12-02T08:43:36.583Z,29.8
2018-12-02T08:44:26.393Z,29.9
2018-12-02T08:45:16.168Z,29.9
2018-12-02T08:46:07.721Z,30
2018-12-02T08:46:57.373Z,30.1
2018-12-02T08:47:46.953Z,30.1
2018-12-02T08:48:36.188Z,30.1
2018-12-02T08:49:26.150Z,30.2
2018-12-02T08:50:17.423Z,30.2
2018-12-02T08:51:06.263Z,30.1
2018-12-02T08:51:57.281Z,30
2018-12-02T09:08:36.510Z,28
2018-12-02T09:09:28.630Z,28
2018-12-02T09:10:15.837Z,28.1
2018-12-02T09:11:05.535Z,28.3
2018-12-02T09:11:56.682Z,28.4
2018-12-02T09:12:46.987Z,28.6
2018-12-02T09:13:36.572Z,28.7
2018-12-02T09:14:26.617Z,28.9
2018-12-02T09:15:18.780Z,28.9
2018-12-02T09:16:06.666Z,29.1
2018-12-02T09:16:56.226Z,29.2
2018-12-02T09:17:46.779Z,29.3
2018-12-02T09:18:38.062Z,29.3
2018-12-02T09:19:26.628Z,29.4
2018-12-02T09:20:16.416Z,29.5
2018-12-02T09:21:05.949Z,29.6
2018-12-02T09:21:57.619Z,29.6
2018-12-02T09:22:47.399Z,29.8
2018-12-02T09:23:38.116Z,29.8
2018-12-02T09:24:26.851Z,29.9
2018-12-02T09:25:17.608Z,29.9
2018-12-02T09:26:07.099Z,29.9
2018-12-02T09:26:56.906Z,30.1
2018-12-02T09:27:46.180Z,30.1
2018-12-02T09:28:38.190Z,30.1
2018-12-02T09:29:27.116Z,30.2
2018-12-02T09:30:18.023Z,30.2
2018-12-02T09:31:06.206Z,30.1
2018-12-02T09:31:56.433Z,30.1
2018-12-02T09:32:47.939Z,29.9
2018-12-02T09:33:38.418Z,29.8
2018-12-02T09:34:28.781Z,29.7
2018-12-02T09:35:17.398Z,29.6
2018-12-02T09:36:07.293Z,29.4
2018-12-02T09:37:04.433Z,29.3
2018-12-02T09:37:47.817Z,29.1
2018-12-02T09:38:39.128Z,29
2018-12-02T09:39:28.985Z,28.9
2018-12-02T09:40:17.288Z,28.8
2018-12-02T09:41:08.725Z,28.6
2018-12-02T09:41:58.715Z,28.5
2018-12-02T09:42:48.908Z,28.4
2018-12-02T09:43:38.090Z,28.3
2018-12-02T09:44:29.244Z,28
2018-12-02T09:45:19.088Z,28.4
2018-12-02T09:46:08.757Z,28.2
2018-12-02T09:46:58.558Z,28.1
2018-12-02T09:47:49.185Z,28.1
2018-12-02T09:48:39.190Z,28
2018-12-02T09:49:28.037Z,28
2018-12-02T09:50:19.565Z,28.2
2018-12-02T09:51:10.217Z,28.3
2018-12-02T09:52:00.293Z,28.5
2018-12-02T09:52:49.838Z,28.7
2018-12-02T09:53:40.435Z,28.8
2018-12-02T09:54:32.850Z,28.9
2018-12-02T09:55:19.955Z,29.1
2018-12-02T09:56:09.757Z,29.2
2018-12-02T09:56:59.103Z,29.3
2018-12-02T09:57:48.308Z,29.3
2018-12-02T09:58:39.655Z,29.4
2018-12-02T09:59:28.650Z,29.5
2018-12-02T10:00:19.390Z,29.6
2018-12-02T10:01:09.007Z,29.6
2018-12-02T10:01:59.879Z,29.8
2018-12-02T10:02:50.245Z,29.8
2018-12-02T10:03:40.077Z,29.9
2018-12-02T10:04:31.339Z,29.9
2018-12-02T10:05:19.415Z,30
2018-12-02T10:06:10.539Z,30.1
2018-12-02T10:07:00.259Z,30.1
2018-12-02T10:07:50.357Z,30.2
2018-12-02T10:08:41.184Z,30.2
2018-12-02T10:09:31.559Z,30.2
2018-12-02T10:10:26.522Z,30.1
2018-12-02T10:11:09.874Z,30.1
2018-12-02T10:12:00.559Z,29.9
2018-12-02T10:12:50.072Z,29.8
2018-12-02T10:13:41.529Z,29.8
2018-12-02T10:14:31.316Z,29.6
2018-12-02T10:15:21.945Z,29.6
2018-12-02T10:16:18.542Z,29.4
2018-12-02T10:17:01.077Z,29.4
2018-12-02T10:17:50.796Z,29.3
2018-12-02T10:18:40.866Z,29.3
2018-12-02T10:19:30.379Z,29.2
2018-12-02T10:20:20.708Z,29.1
2018-12-02T10:21:11.583Z,29
2018-12-02T10:22:01.508Z,28.9
2018-12-02T10:22:51.119Z,28.9
2018-12-02T10:23:41.663Z,28.8
2018-12-02T10:24:30.983Z,28.8
2018-12-02T10:25:21.248Z,28.6
2018-12-02T10:26:11.931Z,28.6
2018-12-02T10:27:02.443Z,28.5
2018-12-02T10:27:51.813Z,28.4
2018-12-02T10:28:41.540Z,28.4
2018-12-02T10:29:30.694Z,28.3
2018-12-02T10:30:22.142Z,28.3
2018-12-02T10:31:12.720Z,28.1
2018-12-02T10:32:02.415Z,28.1
2018-12-02T10:32:51.595Z,28.1
2018-12-02T10:33:42.920Z,27.9
2018-12-02T10:35:21.193Z,27.7
2018-12-02T10:36:12.036Z,27.6
2018-12-02T10:37:02.228Z,27.4
2018-12-02T10:37:51.627Z,27.4
2018-12-02T10:38:42.732Z,27.4
2018-12-02T10:39:32.039Z,27.3
2018-12-02T10:40:22.484Z,27.2
2018-12-02T10:41:12.530Z,27.1
2018-12-02T10:42:01.232Z,27
2018-12-02T10:42:52.036Z,26.9
2018-12-02T10:43:42.931Z,26.8
2018-12-02T10:44:33.149Z,26.8
2018-12-02T10:45:23.027Z,26.7
2018-12-02T10:46:13.680Z,26.6
2018-12-02T10:47:04.295Z,26.5
2018-12-02T10:47:54.159Z,26.4
2018-12-02T10:48:43.461Z,26.4
2018-12-02T10:49:33.249Z,26.3
2018-12-02T10:50:23.271Z,26.3
2018-12-02T10:51:13.965Z,26.2
2018-12-02T10:52:04.082Z,26.1
2018-12-02T10:52:53.326Z,26
2018-12-02T10:53:42.446Z,26
2018-12-02T10:54:34.377Z,25.9
2018-12-02T10:55:23.676Z,25.8
2018-12-02T10:56:13.889Z,25.8
2018-12-02T10:57:03.816Z,25.8
2018-12-02T10:57:52.709Z,25.6
2018-12-02T10:58:43.676Z,25.6
2018-12-02T10:59:34.571Z,25.6
2018-12-02T11:00:24.293Z,25.5
2018-12-02T11:01:13.504Z,25.4
2018-12-02T11:02:04.110Z,25.4
2018-12-02T11:02:53.393Z,25.3
2018-12-02T11:03:42.807Z,25.3
2018-12-02T11:04:33.730Z,25.2
2018-12-02T11:05:24.840Z,25.1
2018-12-02T11:06:15.476Z,25.1
2018-12-02T11:07:03.696Z,25
2018-12-02T11:07:54.430Z,24.9
2018-12-02T11:08:45.442Z,24.9
2018-12-02T11:09:34.530Z,24.8
2018-12-02T11:10:24.890Z,24.7
2018-12-02T11:11:14.190Z,24.6
2018-12-02T11:12:03.830Z,24.5
2018-12-02T11:12:55.230Z,24.4
2018-12-02T11:13:45.157Z,24.4
2018-12-02T11:14:35.735Z,24.3
2018-12-02T11:15:25.557Z,24.3
2018-12-02T11:16:15.675Z,24.1
2018-12-02T11:17:06.460Z,24.1
2018-12-02T11:17:53.447Z,24
2018-12-02T11:18:46.160Z,23.9
2018-12-02T11:19:33.412Z,23.9
2018-12-02T11:20:25.405Z,23.8
2018-12-02T11:21:15.742Z,23.7
2018-12-02T11:22:06.025Z,23.6
2018-12-02T11:22:55.306Z,23.6
2018-12-02T11:23:46.392Z,23.6
2018-12-02T11:24:35.609Z,23.5
2018-12-02T11:25:26.364Z,23.4
2018-12-02T11:26:14.992Z,23.4
2018-12-02T11:27:06.542Z,23.3
2018-12-02T11:27:56.070Z,23.2
2018-12-02T11:28:46.021Z,23.2
2018-12-02T11:29:36.639Z,23.1
2018-12-02T11:30:26.654Z,23.1
2018-12-02T11:31:16.459Z,23
2018-12-02T11:32:06.226Z,22.9
2018-12-02T11:32:56.656Z,22.9
2018-12-02T11:33:44.769Z,22.9
2018-12-02T11:34:36.444Z,22.8
2018-12-02T11:35:25.408Z,22.8
2018-12-02T11:36:16.021Z,22.7
2018-12-02T11:37:05.009Z,22.6
2018-12-02T11:37:56.696Z,22.6
2018-12-02T11:38:47.096Z,22.5
2018-12-02T11:39:35.927Z,22.5
2018-12-02T11:40:27.023Z,22.4
2018-12-02T11:41:17.576Z,22.4
2018-12-02T11:42:06.276Z,22.3
2018-12-02T11:42:57.516Z,22.3
2018-12-02T11:43:47.746Z,22.2
2018-12-02T11:44:38.140Z,22.1
2018-12-02T11:45:27.408Z,22.1
2018-12-02T11:46:16.985Z,22.1
2018-12-02T11:47:08.310Z,22
2018-12-02T11:47:58.428Z,21.9
2018-12-02T11:48:48.405Z,21.9
2018-12-02T11:49:37.403Z,21.8
2018-12-02T11:50:28.558Z,21.8
2018-12-02T11:51:18.040Z,21.8
2018-12-02T11:52:07.648Z,21.8
2018-12-02T11:52:58.545Z,21.7
2018-12-02T11:53:48.505Z,21.6
2018-12-02T11:54:38.312Z,21.6
2018-12-02T11:55:28.258Z,21.6
2018-12-02T11:56:18.669Z,21.5
2018-12-02T11:57:10.005Z,21.4
2018-12-02T11:57:58.403Z,21.5
2018-12-02T11:58:48.148Z,21.4
2018-12-02T11:59:38.159Z,21.4
2018-12-02T12:00:28.990Z,21.3